createdAt,value
2019-05-22T00:01:24.485Z,94801.27
2019-05-22T00:04:37.369Z,94808.65
2019-05-22T00:07:46.703Z,94810.20
2019-05-22T00:10:54.566Z,94811.08
2019-05-22T00:14:04.748Z,94806.12
2019-05-22T00:17:14.663Z,94810.53
2019-05-22T00:20:24.425Z,94817.48
2019-05-22T00:23:32.523Z,94812.63
2019-05-22T00:26:43.325Z,94816.29
2019-05-22T00:29:53.187Z,94817.74
2019-05-22T00:33:00.787Z,94826.23
2019-05-22T00:36:12.764Z,94820.95
2019-05-22T00:39:21.179Z,94817.61
2019-05-22T00:42:31.113Z,94815.73
2019-05-22T00:45:39.568Z,94821.59
2019-05-22T00:48:47.396Z,94820.92
2019-05-22T00:52:15.077Z,94823.14
2019-05-22T00:55:39.665Z,94821.73
2019-05-22T00:58:52.867Z,94830.23
2019-05-22T01:02:07.100Z,94834.88
2019-05-22T01:05:19.118Z,94827.36
2019-05-22T01:08:27.968Z,94833.77
2019-05-22T01:11:38.646Z,94831.11
2019-05-22T01:14:48.773Z,94828.56
2019-05-22T01:17:57.408Z,94837.07
2019-05-22T01:21:07.183Z,94839.72
2019-05-22T01:24:16.348Z,94844.25
2019-05-22T01:27:25.948Z,94843.80
2019-05-22T01:30:56.769Z,94845.25
2019-05-22T01:34:14.596Z,94837.84
2019-05-22T01:37:25.978Z,94842.28
2019-05-22T01:40:51.173Z,94849.69
2019-05-22T01:44:02.627Z,94843.25
2019-05-22T01:47:20.082Z,94854.78
2019-05-22T01:50:54.778Z,94850.98
2019-05-22T01:54:03.569Z,94851.98
2019-05-22T01:57:11.299Z,94855.00
2019-05-22T02:00:20.946Z,94859.95
2019-05-22T02:03:30.595Z,94858.53
2019-05-22T02:06:38.780Z,94859.95
2019-05-22T02:09:48.581Z,94862.51
2019-05-22T02:13:02.354Z,94861.17
2019-05-22T02:16:11.097Z,94861.97
2019-05-22T02:19:20.260Z,94860.41
2019-05-22T02:22:29.434Z,94866.59
2019-05-22T02:25:37.349Z,94866.70
2019-05-22T02:28:46.683Z,94864.37
2019-05-22T02:31:57.842Z,94867.03
2019-05-22T02:35:08.330Z,94865.53
2019-05-22T02:38:16.891Z,94868.46
2019-05-22T02:41:28.791Z,94867.58
2019-05-22T02:44:37.462Z,94870.70
2019-05-22T02:47:46.367Z,94868.03
2019-05-22T02:50:55.105Z,94868.92
2019-05-22T02:54:03.769Z,94872.80
2019-05-22T02:57:12.285Z,94871.34
2019-05-22T03:00:24.773Z,94876.42
2019-05-22T03:03:34.101Z,94874.92
2019-05-22T03:06:42.856Z,94879.22
2019-05-22T03:09:51.606Z,94884.98
2019-05-22T03:13:03.412Z,94886.94
2019-05-22T03:16:11.698Z,94892.47
2019-05-22T03:19:40.414Z,94891.94
2019-05-22T03:23:03.083Z,94899.58
2019-05-22T03:26:12.613Z,94897.02
2019-05-22T03:29:36.125Z,94899.22
2019-05-22T03:32:44.871Z,94897.66
2019-05-22T03:36:09.452Z,94896.78
2019-05-22T03:39:17.306Z,94906.62
2019-05-22T03:42:25.508Z,94904.06
2019-05-22T03:45:35.598Z,94905.74
2019-05-22T03:48:46.195Z,94905.28
2019-05-22T03:51:54.930Z,94902.87
2019-05-22T03:55:04.750Z,94902.63
2019-05-22T03:58:13.374Z,94906.76
2019-05-22T04:01:22.312Z,94910.61
2019-05-22T04:04:39.200Z,94914.80
2019-05-22T04:07:48.614Z,94914.68
2019-05-22T04:11:02.586Z,94920.89
2019-05-22T04:14:11.241Z,94923.42
2019-05-22T04:17:21.090Z,94929.81
2019-05-22T04:20:29.395Z,94924.90
2019-05-22T04:23:40.481Z,94934.44
2019-05-22T04:26:49.834Z,94935.97
2019-05-22T04:29:58.333Z,94936.75
2019-05-22T04:33:09.331Z,94938.86
2019-05-22T04:36:19.595Z,94941.28
2019-05-22T04:39:29.344Z,94944.94
2019-05-22T04:42:38.055Z,94940.98
2019-05-22T04:45:48.045Z,94943.87
2019-05-22T04:48:55.430Z,94945.27
2019-05-22T04:52:03.844Z,94945.50
2019-05-22T04:55:11.882Z,94950.92
2019-05-22T04:58:26.728Z,94950.81
2019-05-22T05:01:34.618Z,94953.39
2019-05-22T05:04:42.416Z,94953.77
2019-05-22T05:07:53.038Z,94954.08
2019-05-22T05:11:02.968Z,94953.73
2019-05-22T05:14:13.840Z,94959.26
2019-05-22T05:17:22.754Z,94953.17
2019-05-22T05:20:30.941Z,94962.61
2019-05-22T05:23:38.407Z,94958.06
2019-05-22T05:26:46.418Z,94966.75
2019-05-22T05:29:54.104Z,94966.23
2019-05-22T05:33:03.505Z,94966.91
2019-05-22T05:36:13.229Z,94971.30
2019-05-22T05:40:27.121Z,94978.95
2019-05-22T05:43:34.774Z,94976.03
2019-05-22T05:46:42.378Z,94980.03
2019-05-22T05:49:49.791Z,94977.44
2019-05-22T05:52:59.178Z,94978.87
2019-05-22T05:56:15.824Z,94990.97
2019-05-22T05:59:25.778Z,94989.33
2019-05-22T06:02:34.765Z,94989.95
2019-05-22T06:05:43.598Z,94991.98
2019-05-22T06:08:51.754Z,94992.20
2019-05-22T06:12:00.680Z,94998.41
2019-05-22T06:15:08.405Z,95002.39
2019-05-22T06:18:35.727Z,95007.38
2019-05-22T06:21:48.417Z,95007.06
2019-05-22T06:24:59.418Z,95010.81
2019-05-22T06:28:08.839Z,95022.32
2019-05-22T06:31:35.860Z,95021.80
2019-05-22T06:34:43.332Z,95020.89
2019-05-22T06:38:15.074Z,95033.08
2019-05-22T06:41:26.520Z,95029.55
2019-05-22T06:44:39.022Z,95037.21
2019-05-22T06:47:46.840Z,95037.11
2019-05-22T06:50:55.845Z,95040.78
2019-05-22T06:54:06.453Z,95036.66
2019-05-22T06:57:27.799Z,95037.02
2019-05-22T07:00:35.964Z,95037.80
2019-05-22T07:03:43.349Z,95044.31
2019-05-22T07:06:50.997Z,95041.10
2019-05-22T07:09:59.646Z,95047.78
2019-05-22T07:13:09.172Z,95044.69
2019-05-22T07:16:17.224Z,95049.08
2019-05-22T07:19:28.177Z,95049.76
2019-05-22T07:22:36.299Z,95055.67
2019-05-22T07:25:45.910Z,95057.10
2019-05-22T07:28:53.609Z,95064.20
2019-05-22T07:32:02.317Z,95064.85
2019-05-22T07:35:10.932Z,95070.41
2019-05-22T07:38:19.323Z,95066.27
2019-05-22T07:41:27.387Z,95065.72
2019-05-22T07:44:35.142Z,95072.14
2019-05-22T07:47:44.487Z,95071.68
2019-05-22T07:50:54.901Z,95073.56
2019-05-22T07:54:05.722Z,95075.77
2019-05-22T07:57:20.703Z,95073.89
2019-05-22T08:00:29.010Z,95076.80
2019-05-22T08:03:39.150Z,95072.81
2019-05-22T08:06:47.667Z,95074.72
2019-05-22T08:09:55.233Z,95068.28
2019-05-22T08:13:04.317Z,95062.11
2019-05-22T08:16:13.238Z,95059.68
2019-05-22T08:19:21.945Z,95066.22
2019-05-22T08:22:29.729Z,95064.47
2019-05-22T08:25:39.261Z,95060.13
2019-05-22T08:28:46.923Z,95059.66
2019-05-22T08:31:56.340Z,95060.97
2019-05-22T08:35:06.773Z,95060.49
2019-05-22T08:38:14.339Z,95067.39
2019-05-22T08:41:30.891Z,95068.20
2019-05-22T08:44:40.020Z,95067.05
2019-05-22T08:47:48.044Z,95075.25
2019-05-22T08:50:58.022Z,95064.84
2019-05-22T08:54:07.365Z,95075.15
2019-05-22T08:57:18.772Z,95082.95
2019-05-22T09:00:26.613Z,95077.41
2019-05-22T09:03:34.034Z,95072.06
2019-05-22T09:06:41.877Z,95082.05
2019-05-22T09:09:49.763Z,95089.49
2019-05-22T09:12:57.282Z,95091.87
2019-05-22T09:16:05.779Z,95097.50
2019-05-22T09:19:13.895Z,95092.14
2019-05-22T09:22:39.600Z,95090.52
2019-05-22T09:25:35.302Z,95090.13
2019-05-22T09:28:43.338Z,95093.20
2019-05-22T09:31:50.846Z,95096.89
2019-05-22T09:34:58.799Z,95095.61
2019-05-22T09:38:06.858Z,95100.49
2019-05-22T09:41:14.890Z,95103.38
2019-05-22T09:44:23.273Z,95110.19
2019-05-22T09:47:30.764Z,95108.11
2019-05-22T09:50:38.999Z,95109.48
2019-05-22T09:53:47.723Z,95111.46
2019-05-22T09:56:55.205Z,95112.73
2019-05-22T10:00:07.050Z,95109.08
2019-05-22T10:03:14.959Z,95114.02
2019-05-22T10:06:22.756Z,95111.42
2019-05-22T10:09:30.637Z,95108.67
2019-05-22T10:12:38.330Z,95112.72
2019-05-22T10:15:46.124Z,95120.84
2019-05-22T10:18:53.942Z,95124.13
2019-05-22T10:22:02.744Z,95131.78
2019-05-22T10:25:16.950Z,95132.55
2019-05-22T10:28:25.668Z,95128.19
2019-05-22T10:31:33.980Z,95132.56
2019-05-22T10:34:41.787Z,95136.41
2019-05-22T10:37:49.703Z,95143.74
2019-05-22T10:40:59.408Z,95147.19
2019-05-22T10:44:07.257Z,95142.27
2019-05-22T10:47:18.624Z,95141.71
2019-05-22T10:50:25.507Z,95149.06
2019-05-22T10:53:34.476Z,95145.67
2019-05-22T10:56:41.715Z,95140.23
2019-05-22T10:59:49.835Z,95139.47
2019-05-22T11:02:57.597Z,95133.36
2019-05-22T11:06:07.611Z,95139.78
2019-05-22T11:09:15.453Z,95137.02
2019-05-22T11:12:23.380Z,95144.06
2019-05-22T11:15:31.335Z,95148.57
2019-05-22T11:18:40.013Z,95145.45
2019-05-22T11:21:47.596Z,95153.68
2019-05-22T11:24:56.193Z,95152.02
2019-05-22T11:28:04.070Z,95150.67
2019-05-22T11:31:12.121Z,95149.39
2019-05-22T11:34:20.301Z,95159.38
2019-05-22T11:37:27.716Z,95159.45
2019-05-22T11:40:36.202Z,95152.66
2019-05-22T11:43:44.987Z,95158.86
2019-05-22T11:47:02.152Z,95161.63
2019-05-22T11:50:15.044Z,95158.49
2019-05-22T11:53:23.249Z,95162.66
2019-05-22T11:56:30.933Z,95168.52
2019-05-22T11:59:40.019Z,95165.85
2019-05-22T12:02:47.753Z,95170.27
2019-05-22T12:05:55.098Z,95169.88
2019-05-22T12:09:04.485Z,95164.77
2019-05-22T12:12:12.498Z,95158.09
2019-05-22T12:15:24.401Z,95163.18
2019-05-22T12:18:31.995Z,95160.18
2019-05-22T12:21:40.209Z,95156.23
2019-05-22T12:24:48.215Z,95158.15
2019-05-22T12:27:56.646Z,95156.58
2019-05-22T12:31:05.308Z,95158.22
2019-05-22T12:34:13.387Z,95157.30
2019-05-22T12:37:21.281Z,95157.31
2019-05-22T12:40:35.410Z,95153.77
2019-05-22T12:43:44.950Z,95161.23
2019-05-22T12:46:53.594Z,95157.05
2019-05-22T12:50:02.729Z,95158.77
2019-05-22T12:53:13.180Z,95156.27
2019-05-22T12:56:21.157Z,95160.98
2019-05-22T12:59:29.205Z,95160.34
2019-05-22T13:02:42.146Z,95162.16
2019-05-22T13:05:49.441Z,95163.73
2019-05-22T13:08:59.429Z,95167.36
2019-05-22T13:12:08.310Z,95164.16
2019-05-22T13:15:17.765Z,95164.49
2019-05-22T13:18:28.577Z,95160.56
2019-05-22T13:21:41.511Z,95160.83
2019-05-22T13:24:49.194Z,95161.61
2019-05-22T13:28:00.129Z,95164.03
2019-05-22T13:31:08.523Z,95158.13
2019-05-22T13:34:18.171Z,95164.00
2019-05-22T13:37:25.992Z,95162.97
2019-05-22T13:40:35.106Z,95164.98
2019-05-22T13:43:43.107Z,95166.88
2019-05-22T13:46:51.132Z,95167.14
2019-05-22T13:49:59.581Z,95173.73
2019-05-22T13:53:10.587Z,95169.41
2019-05-22T13:56:18.647Z,95174.28
2019-05-22T13:59:26.724Z,95177.15
2019-05-22T14:02:34.880Z,95173.88
2019-05-22T14:05:43.978Z,95171.70
2019-05-22T14:08:54.814Z,95171.56
2019-05-22T14:12:02.697Z,95177.07
2019-05-22T14:15:11.946Z,95181.09
2019-05-22T14:18:19.717Z,95178.45
2019-05-22T14:21:27.648Z,95179.11
2019-05-22T14:24:35.437Z,95178.23
2019-05-22T14:27:43.008Z,95174.67
2019-05-22T14:30:50.832Z,95178.28
2019-05-22T14:33:59.563Z,95176.45
2019-05-22T14:37:08.959Z,95173.58
2019-05-22T14:40:17.988Z,95177.84
2019-05-22T14:43:27.409Z,95171.98
2019-05-22T14:46:35.563Z,95176.12
2019-05-22T14:49:43.931Z,95175.66
2019-05-22T14:52:51.834Z,95165.42
2019-05-22T14:56:00.942Z,95172.66
2019-05-22T14:59:09.289Z,95170.61
2019-05-22T15:02:18.214Z,95177.00
2019-05-22T15:05:34.849Z,95179.14
2019-05-22T15:08:43.201Z,95174.49
2019-05-22T15:11:52.133Z,95176.02
2019-05-22T15:15:00.392Z,95180.06
2019-05-22T15:18:08.249Z,95187.22
2019-05-22T15:21:16.826Z,95181.52
2019-05-22T15:24:26.222Z,95194.50
2019-05-22T15:27:35.184Z,95192.98
2019-05-22T15:30:44.127Z,95189.25
2019-05-22T15:33:52.436Z,95188.59
2019-05-22T15:37:00.628Z,95193.95
2019-05-22T15:40:09.500Z,95195.45
2019-05-22T15:43:17.059Z,95191.39
2019-05-22T15:46:28.078Z,95181.15
2019-05-22T15:49:40.980Z,95190.00
2019-05-22T15:52:56.647Z,95187.82
2019-05-22T15:56:07.376Z,95186.15
2019-05-22T15:59:19.040Z,95193.61
2019-05-22T16:02:28.638Z,95191.77
2019-05-22T16:05:46.409Z,95184.59
2019-05-22T16:08:54.873Z,95188.41
2019-05-22T16:12:04.976Z,95191.58
2019-05-22T16:15:18.291Z,95200.27
2019-05-22T16:18:28.894Z,95196.00
2019-05-22T16:21:41.302Z,95197.52
2019-05-22T16:24:50.058Z,95195.70
2019-05-22T16:27:58.691Z,95200.73
2019-05-22T16:31:09.665Z,95201.06
2019-05-22T16:34:17.887Z,95201.00
2019-05-22T16:37:26.025Z,95201.30
2019-05-22T16:40:34.963Z,95204.82
2019-05-22T16:43:49.559Z,95202.19
2019-05-22T16:46:57.490Z,95199.59
2019-05-22T16:50:08.326Z,95205.34
2019-05-22T16:53:18.822Z,95207.34
2019-05-22T16:56:28.320Z,95203.78
2019-05-22T16:59:40.974Z,95207.34
2019-05-22T17:02:49.149Z,95206.30
2019-05-22T17:05:57.642Z,95215.99
2019-05-22T17:09:08.954Z,95212.94
2019-05-22T17:12:17.458Z,95217.47
2019-05-22T17:15:25.725Z,95218.27
2019-05-22T17:18:46.697Z,95220.09
2019-05-22T17:21:44.744Z,95221.84
2019-05-22T17:24:52.979Z,95210.48
2019-05-22T17:28:01.910Z,95213.24
2019-05-22T17:31:10.487Z,95211.66
2019-05-22T17:34:31.085Z,95211.62
2019-05-22T17:37:40.403Z,95218.41
2019-05-22T17:40:48.310Z,95223.08
2019-05-22T17:43:56.733Z,95220.30
2019-05-22T17:47:07.700Z,95217.30
2019-05-22T17:50:26.791Z,95219.91
2019-05-22T17:53:30.274Z,95216.79
2019-05-22T17:56:38.400Z,95218.97
2019-05-22T17:59:47.632Z,95227.11
2019-05-22T18:02:55.739Z,95228.47
2019-05-22T18:06:05.148Z,95227.80
2019-05-22T18:09:13.455Z,95236.27
2019-05-22T18:12:22.200Z,95239.38
2019-05-22T18:15:30.543Z,95239.38
2019-05-22T18:18:38.520Z,95245.08
2019-05-22T18:21:48.112Z,95247.98
2019-05-22T18:24:56.518Z,95249.66
2019-05-22T18:28:05.235Z,95253.85
2019-05-22T18:31:13.245Z,95257.20
2019-05-22T18:34:21.099Z,95259.30
2019-05-22T18:37:31.209Z,95256.66
2019-05-22T18:40:39.309Z,95264.20
2019-05-22T18:43:47.426Z,95261.53
2019-05-22T18:46:55.584Z,95269.07
2019-05-22T18:50:04.540Z,95275.51
2019-05-22T18:53:13.396Z,95277.95
2019-05-22T18:56:22.142Z,95280.63
2019-05-22T18:59:30.664Z,95282.61
2019-05-22T19:02:39.135Z,95279.39
2019-05-22T19:05:47.754Z,95286.05
2019-05-22T19:08:57.355Z,95284.91
2019-05-22T19:12:06.123Z,95285.45
2019-05-22T19:15:16.060Z,95290.13
2019-05-22T19:18:24.682Z,95291.32
2019-05-22T19:21:33.189Z,95294.67
2019-05-22T19:24:41.948Z,95297.02
2019-05-22T19:27:49.883Z,95299.13
2019-05-22T19:30:57.833Z,95302.11
2019-05-22T19:34:05.690Z,95300.18
2019-05-22T19:37:14.064Z,95297.20
2019-05-22T19:40:22.503Z,95298.37
2019-05-22T19:43:31.889Z,95297.73
2019-05-22T19:46:39.944Z,95300.17
2019-05-22T19:49:49.656Z,95305.50
2019-05-22T19:53:17.620Z,95309.41
2019-05-22T19:56:10.793Z,95306.59
2019-05-22T19:59:18.718Z,95304.31
2019-05-22T20:02:27.022Z,95316.98
2019-05-22T20:05:38.129Z,95315.42
2019-05-22T20:08:47.053Z,95315.06
2019-05-22T20:12:10.868Z,95318.75
2019-05-22T20:15:20.319Z,95315.52
2019-05-22T20:18:28.289Z,95316.67
2019-05-22T20:21:37.152Z,95317.30
2019-05-22T20:24:44.738Z,95320.59
2019-05-22T20:27:55.272Z,95314.63
2019-05-22T20:31:03.295Z,95315.70
2019-05-22T20:34:14.704Z,95318.99
2019-05-22T20:37:22.299Z,95319.66
2019-05-22T20:40:30.324Z,95326.53
2019-05-22T20:43:39.520Z,95322.80
2019-05-22T20:46:47.993Z,95321.75
2019-05-22T20:49:56.880Z,95323.95
2019-05-22T20:53:05.591Z,95320.72
2019-05-22T20:56:13.907Z,95321.72
2019-05-22T20:59:21.488Z,95321.37
2019-05-22T21:02:30.557Z,95331.37
2019-05-22T21:05:41.091Z,95323.23
2019-05-22T21:08:49.776Z,95320.37
2019-05-22T21:11:59.139Z,95323.02
2019-05-22T21:15:07.723Z,95326.92
2019-05-22T21:18:18.186Z,95327.38
2019-05-22T21:21:26.893Z,95329.18
2019-05-22T21:24:36.439Z,95328.83
2019-05-22T21:27:45.366Z,95330.38
2019-05-22T21:30:53.921Z,95329.13
2019-05-22T21:34:01.891Z,95330.69
2019-05-22T21:37:10.638Z,95327.43
2019-05-22T21:40:21.951Z,95329.23
2019-05-22T21:43:30.159Z,95329.78
2019-05-22T21:46:38.821Z,95324.95
2019-05-22T21:49:49.131Z,95325.25
2019-05-22T21:52:58.518Z,95324.47
2019-05-22T21:56:07.392Z,95326.58
2019-05-22T21:59:15.491Z,95327.75
2019-05-22T22:02:36.529Z,95329.71
2019-05-22T22:05:45.435Z,95329.06
2019-05-22T22:08:53.580Z,95329.53
2019-05-22T22:12:01.587Z,95333.26
2019-05-22T22:15:11.905Z,95336.55
2019-05-22T22:18:24.439Z,95331.26
2019-05-22T22:21:30.784Z,95330.63
2019-05-22T22:24:39.003Z,95335.10
2019-05-22T22:27:46.671Z,95333.78
2019-05-22T22:30:58.067Z,95332.39
2019-05-22T22:34:45.034Z,95332.39
2019-05-22T22:37:53.437Z,95335.22
2019-05-22T22:41:01.853Z,95331.55
2019-05-22T22:44:10.614Z,95328.09
2019-05-22T22:47:24.113Z,95336.73
2019-05-22T22:50:32.253Z,95338.64
2019-05-22T22:53:41.365Z,95341.73
2019-05-22T22:56:49.352Z,95333.16
2019-05-22T22:59:57.284Z,95334.91
2019-05-22T23:03:12.252Z,95335.52
2019-05-22T23:06:21.092Z,95339.98
2019-05-22T23:09:29.588Z,95334.89
2019-05-22T23:12:38.746Z,95335.32
2019-05-22T23:15:50.651Z,95331.72
2019-05-22T23:19:37.446Z,95335.60
2019-05-22T23:22:43.574Z,95342.08
2019-05-22T23:25:51.819Z,95335.92
2019-05-22T23:28:59.389Z,95337.56
2019-05-22T23:32:09.026Z,95338.42
2019-05-22T23:35:17.986Z,95343.48
2019-05-22T23:38:25.594Z,95342.08
2019-05-22T23:41:35.392Z,95336.78
2019-05-22T23:44:45.512Z,95335.45
2019-05-22T23:48:12.757Z,95331.48
2019-05-22T23:51:20.512Z,95333.02
2019-05-22T23:54:30.117Z,95335.22
2019-05-22T23:57:38.139Z,95342.16
